Time;durP1;ratioP1;P1;durP2;ratioP2;P2;SDS_P1;SDS_P2;PMS_P1;PMS_P2;Temp;Humidity;BMP_temperature;BMP_pressure;BME280_temperature;BME280_humidity;BME280_pressure;Samples;Min_cycle;Max_cycle;Signal;HPM_P1;HPM_P2
2023/10/01 00:01:19;;;;;;;16.92;10.70;;;;;;;13.75;86.71;102367.22;5063352;28;20048;-68
2023/10/01 00:03:45;;;;;;;18.00;11.32;;;;;;;13.79;87.26;102362.41;5061739;28;20070;-68
2023/10/01 00:06:10;;;;;;;18.98;10.80;;;;;;;13.81;87.13;102371.09;5064449;28;20024;-68
2023/10/01 00:08:35;;;;;;;16.35;10.48;;;;;;;13.82;87.22;102365.59;5063593;28;20823;-68
2023/10/01 00:11:02;;;;;;;19.67;11.35;;;;;;;13.79;87.28;102373.94;5062740;28;20402;-68
2023/10/01 00:13:28;;;;;;;17.25;11.13;;;;;;;13.80;87.07;102374.75;5063630;28;20028;-67
2023/10/01 00:15:55;;;;;;;16.55;11.00;;;;;;;13.78;86.92;102374.09;5063080;28;20031;-68
2023/10/01 00:18:20;;;;;;;18.45;10.90;;;;;;;13.74;86.68;102368.22;5064267;28;20051;-68
2023/10/01 00:20:46;;;;;;;15.02;10.77;;;;;;;13.76;87.05;102371.56;5060684;28;20062;-68
2023/10/01 00:23:12;;;;;;;14.32;10.38;;;;;;;13.73;87.11;102366.53;5066215;28;20036;-68
2023/10/01 00:25:38;;;;;;;18.67;10.75;;;;;;;13.64;86.72;102381.66;5065824;28;20039;-68
2023/10/01 00:28:08;;;;;;;17.08;10.57;;;;;;;13.57;86.75;102377.06;5063677;28;20024;-68
2023/10/01 00:30:33;;;;;;;16.63;10.95;;;;;;;13.50;86.80;102371.50;5062771;28;20032;-68
2023/10/01 00:32:58;;;;;;;17.23;10.40;;;;;;;13.40;86.86;102359.22;5062259;28;20122;-68
2023/10/01 00:35:26;;;;;;;18.80;10.45;;;;;;;13.33;86.91;102364.34;5063479;28;20448;-68
2023/10/01 00:37:52;;;;;;;16.60;10.43;;;;;;;13.27;87.08;102365.75;5063486;28;20036;-68
2023/10/01 00:40:18;;;;;;;16.95;10.50;;;;;;;13.19;87.46;102347.00;5062433;28;20396;-68
2023/10/01 00:42:44;;;;;;;17.05;10.00;;;;;;;13.15;87.55;102347.44;5062107;28;20493;-68
2023/10/01 00:45:14;;;;;;;17.30;9.95;;;;;;;13.06;87.54;102343.00;5060180;28;20034;-68
2023/10/01 00:47:41;;;;;;;19.35;9.77;;;;;;;13.04;87.16;102351.16;5062535;28;20040;-68
2023/10/01 00:50:11;;;;;;;15.35;9.32;;;;;;;13.01;87.31;102346.97;5064223;28;20071;-68
2023/10/01 00:52:37;;;;;;;16.70;9.45;;;;;;;12.99;87.41;102345.41;5063591;28;20032;-68
2023/10/01 00:55:03;;;;;;;17.08;9.10;;;;;;;12.96;87.63;102340.38;5058571;28;20028;-68
2023/10/01 00:57:28;;;;;;;18.33;8.98;;;;;;;12.93;87.65;102338.84;5065911;28;20028;-68
2023/10/01 00:59:53;;;;;;;14.23;8.63;;;;;;;12.91;87.97;102346.16;5062291;28;20029;-68
2023/10/01 01:02:19;;;;;;;14.05;8.65;;;;;;;12.89;87.60;102336.63;5061451;28;20024;-67
2023/10/01 01:04:59;;;;;;;15.75;9.25;;;;;;;12.89;87.70;102341.97;5060064;28;20036;-68
2023/10/01 01:07:24;;;;;;;14.82;8.80;;;;;;;12.87;87.55;102328.78;5059051;28;20107;-68
2023/10/01 01:09:50;;;;;;;13.88;8.18;;;;;;;12.88;87.33;102327.78;5063166;28;20144;-67
2023/10/01 01:12:15;;;;;;;14.77;8.52;;;;;;;12.91;87.36;102326.66;5060254;28;20021;-67
2023/10/01 01:14:44;;;;;;;15.07;8.07;;;;;;;12.91;87.63;102326.66;5050901;28;20029;-68
2023/10/01 01:17:13;;;;;;;11.90;8.20;;;;;;;12.94;87.61;102329.84;5055908;28;20058;-68
2023/10/01 01:19:39;;;;;;;16.17;8.27;;;;;;;12.95;87.39;102333.38;5053904;28;20059;-67
2023/10/01 01:22:04;;;;;;;16.85;7.63;;;;;;;12.95;87.37;102330.69;5060189;28;20016;-67
2023/10/01 01:24:30;;;;;;;12.70;7.90;;;;;;;12.94;87.30;102337.03;5059648;28;20044;-67
2023/10/01 01:27:00;;;;;;;15.05;8.23;;;;;;;12.93;87.00;102328.19;5065937;28;20374;-68
2023/10/01 01:29:33;;;;;;;11.73;7.75;;;;;;;12.91;87.06;102324.00;5062511;28;20032;-68
2023/10/01 01:32:13;;;;;;;12.95;7.35;;;;;;;12.92;87.25;102320.34;5063160;28;20021;-68
2023/10/01 01:34:40;;;;;;;14.60;7.72;;;;;;;12.95;87.23;102322.69;5053209;28;20076;-68
2023/10/01 01:37:06;;;;;;;12.38;7.20;;;;;;;12.91;87.14;102314.16;5060705;28;20474;-68
2023/10/01 01:39:43;;;;;;;12.90;7.07;;;;;;;12.93;86.68;102327.34;5056779;28;20029;-68
2023/10/01 01:42:11;;;;;;;16.30;7.35;;;;;;;12.93;86.64;102325.50;5052883;28;20447;-68
2023/10/01 01:44:37;;;;;;;16.25;7.57;;;;;;;12.91;86.46;102324.81;5058265;28;20021;-67
2023/10/01 01:47:06;;;;;;;12.65;7.05;;;;;;;12.90;86.34;102309.81;5061012;28;20022;-67
2023/10/01 01:49:32;;;;;;;16.35;7.75;;;;;;;12.87;86.24;102307.47;5063797;28;20490;-68
2023/10/01 01:51:59;;;;;;;13.02;7.25;;;;;;;12.86;86.33;102305.78;5060640;28;20042;-68
2023/10/01 01:54:29;;;;;;;17.05;7.47;;;;;;;12.80;86.34;102294.88;5063572;28;20036;-68
2023/10/01 01:56:58;;;;;;;14.75;7.03;;;;;;;12.80;86.55;102295.72;5056080;28;20526;-68
2023/10/01 01:59:28;;;;;;;13.80;7.15;;;;;;;12.80;86.58;102301.06;5062375;28;20063;-68
2023/10/01 02:01:55;;;;;;;12.80;6.57;;;;;;;12.80;86.53;102300.22;5065298;28;20052;-68
2023/10/01 02:04:22;;;;;;;12.20;6.97;;;;;;;12.78;86.45;102296.84;5068026;28;20104;-68
2023/10/01 02:06:48;;;;;;;15.95;7.40;;;;;;;12.75;86.54;102292.66;5066256;28;20035;-68
2023/10/01 02:09:14;;;;;;;14.43;7.38;;;;;;;12.75;86.76;102295.34;5069036;28;20032;-68
2023/10/01 02:11:40;;;;;;;10.98;6.95;;;;;;;12.74;86.63;102287.50;5066553;28;20028;-68
2023/10/01 02:14:06;;;;;;;13.65;7.28;;;;;;;12.75;87.00;102290.00;5062465;28;20063;-68
2023/10/01 02:16:38;;;;;;;11.80;6.80;;;;;;;12.76;87.14;102293.50;5066890;28;20025;-68
2023/10/01 02:21:49;;;;;;;11.73;7.25;;;;;;;12.70;86.99;102271.75;5064409;28;20037;-68
2023/10/01 02:24:19;;;;;;;13.85;7.20;;;;;;;12.67;86.96;102285.41;5060909;28;20047;-67
2023/10/01 02:26:46;;;;;;;12.27;6.70;;;;;;;12.60;86.74;102281.66;5064256;28;20029;-68
2023/10/01 02:29:13;;;;;;;14.63;7.32;;;;;;;12.56;87.11;102290.09;5057748;28;20071;-67
2023/10/01 02:31:39;;;;;;;13.35;7.32;;;;;;;12.51;87.02;102289.72;5060342;28;20025;-68
2023/10/01 02:34:08;;;;;;;11.65;7.60;;;;;;;12.41;87.26;102282.56;5057830;28;20032;-68
2023/10/01 02:36:36;;;;;;;12.55;7.25;;;;;;;12.45;87.53;102295.63;5068505;28;20024;-67
2023/10/01 02:39:11;;;;;;;14.45;7.35;;;;;;;12.41;87.61;102295.06;5062880;28;20032;-68
2023/10/01 02:41:40;;;;;;;13.32;7.47;;;;;;;12.37;87.47;102289.19;5065163;28;20037;-67
2023/10/01 02:44:10;;;;;;;12.63;7.80;;;;;;;12.32;87.98;102285.28;5067806;28;20521;-68
2023/10/01 02:46:37;;;;;;;14.18;7.45;;;;;;;12.32;88.19;102293.28;5063357;28;20036;-67
2023/10/01 02:49:04;;;;;;;15.68;7.20;;;;;;;12.33;88.46;102289.63;5065167;28;20720;-68
2023/10/01 02:51:32;;;;;;;15.20;7.07;;;;;;;12.33;88.71;102293.13;5063438;28;20485;-68
2023/10/01 02:54:11;;;;;;;14.82;7.35;;;;;;;12.31;88.51;102294.28;5067503;28;20035;-67
2023/10/01 02:56:52;;;;;;;14.75;6.90;;;;;;;12.29;88.50;102293.56;5067658;28;20021;-68
2023/10/01 02:59:18;;;;;;;10.00;6.85;;;;;;;12.28;88.63;102294.56;5065182;28;20035;-68
2023/10/01 03:01:46;;;;;;;13.13;7.20;;;;;;;12.23;88.71;102280.84;5066300;28;21687;-68
2023/10/01 03:04:15;;;;;;;12.95;7.35;;;;;;;12.20;89.51;102286.47;5064330;28;20055;-67
2023/10/01 03:06:43;;;;;;;13.30;6.80;;;;;;;12.23;89.62;102286.19;5064871;28;20016;-68
2023/10/01 03:09:22;;;;;;;12.07;6.70;;;;;;;12.21;89.57;102282.81;5063012;28;20033;-68
2023/10/01 03:11:53;;;;;;;15.43;7.35;;;;;;;12.24;89.46;102282.53;5064130;28;20024;-68
2023/10/01 03:14:25;;;;;;;13.63;7.38;;;;;;;12.22;89.54;102279.16;5063831;28;20604;-67
2023/10/01 03:16:53;;;;;;;14.45;6.72;;;;;;;12.23;89.90;102276.38;5066535;28;20119;-68
2023/10/01 03:19:25;;;;;;;15.27;7.75;;;;;;;12.21;90.00;102282.81;5064126;28;20639;-68
2023/10/01 03:24:36;;;;;;;14.60;7.20;;;;;;;12.13;90.17;102278.19;5066294;28;20036;-67
2023/10/01 03:27:13;;;;;;;10.85;6.75;;;;;;;12.11;90.11;102272.19;5064272;28;20021;-67
2023/10/01 03:29:42;;;;;;;12.80;6.80;;;;;;;12.09;90.71;102275.00;5066002;28;20028;-67
2023/10/01 03:34:53;;;;;;;13.98;7.07;;;;;;;12.12;91.04;102273.03;5063457;28;20043;-68
2023/10/01 03:37:19;;;;;;;16.48;6.55;;;;;;;12.13;91.11;102277.38;5067387;28;20025;-67
2023/10/01 03:39:50;;;;;;;13.75;7.05;;;;;;;12.13;91.13;102274.69;5063220;28;20032;-67
2023/10/01 03:42:17;;;;;;;14.52;7.10;;;;;;;12.14;91.31;102269.22;5066240;28;20523;-67
2023/10/01 03:44:59;;;;;;;15.07;7.53;;;;;;;12.09;91.31;102264.34;5064320;28;20016;-68
2023/10/01 03:47:27;;;;;;;12.02;6.90;;;;;;;12.12;91.65;102271.19;5061525;28;20047;-67
2023/10/01 03:49:57;;;;;;;12.40;6.45;;;;;;;12.12;91.62;102273.84;5065044;28;20032;-67
2023/10/01 03:52:22;;;;;;;13.45;6.70;;;;;;;12.09;91.58;102272.34;5064132;28;20058;-67
2023/10/01 03:57:19;;;;;;;13.75;7.22;;;;;;;12.09;91.90;102268.81;5065970;28;20131;-68
2023/10/01 03:59:52;;;;;;;13.68;6.63;;;;;;;12.10;91.73;102274.00;5063674;28;20443;-68
2023/10/01 04:02:27;;;;;;;14.63;7.60;;;;;;;12.13;91.97;102264.88;5062409;28;20116;-67
2023/10/01 04:05:02;;;;;;;16.45;7.63;;;;;;;12.17;92.36;102270.78;5064070;28;20116;-67
2023/10/01 04:07:43;;;;;;;12.55;6.55;;;;;;;12.21;92.15;102275.66;5059874;28;20044;-67
2023/10/01 04:10:19;;;;;;;12.77;6.80;;;;;;;12.25;92.52;102274.38;5063655;28;20040;-68
2023/10/01 04:12:49;;;;;;;16.65;7.25;;;;;;;12.27;91.97;102268.91;5061913;28;20170;-67
2023/10/01 04:15:27;;;;;;;13.60;6.80;;;;;;;12.31;92.35;102271.13;5064498;28;20040;-68
2023/10/01 04:20:48;;;;;;;15.60;7.25;;;;;;;12.36;92.17;102268.03;5058846;28;20044;-67
2023/10/01 04:23:29;;;;;;;12.43;6.75;;;;;;;12.37;92.23;102273.19;5064599;28;20040;-67
2023/10/01 04:26:06;;;;;;;13.18;6.90;;;;;;;12.38;91.92;102269.56;5061317;28;20079;-68
2023/10/01 04:28:37;;;;;;;15.13;7.32;;;;;;;12.39;92.14;102270.38;5059845;28;20029;-67
2023/10/01 04:31:09;;;;;;;13.52;7.00;;;;;;;12.38;92.15;102266.06;5065716;28;20496;-67
2023/10/01 04:33:42;;;;;;;14.02;6.85;;;;;;;12.42;92.08;102267.44;5062998;28;20112;-67
2023/10/01 04:36:10;;;;;;;14.73;7.40;;;;;;;12.42;91.98;102264.75;5060075;28;20028;-68
2023/10/01 04:38:37;;;;;;;13.85;6.65;;;;;;;12.43;91.88;102270.94;5067627;28;20447;-67
2023/10/01 04:41:07;;;;;;;16.45;7.22;;;;;;;12.44;91.95;102270.81;5064530;28;20035;-67
2023/10/01 04:43:35;;;;;;;17.45;7.75;;;;;;;12.45;92.23;102271.66;5064493;28;20105;-68
2023/10/01 04:46:08;;;;;;;15.80;7.43;;;;;;;12.44;91.87;102270.81;5064376;28;20013;-67
2023/10/01 04:48:36;;;;;;;13.57;7.35;;;;;;;12.42;91.83;102270.09;5063548;28;20020;-67
2023/10/01 04:51:03;;;;;;;15.13;7.30;;;;;;;12.43;91.84;102265.59;5063752;28;20445;-68
2023/10/01 04:53:28;;;;;;;13.25;7.03;;;;;;;12.40;91.65;102267.56;5066101;28;20537;-67
2023/10/01 04:56:00;;;;;;;16.80;7.30;;;;;;;12.41;91.76;102265.75;5062396;28;20112;-68
2023/10/01 04:58:27;;;;;;;15.18;7.38;;;;;;;12.38;91.54;102268.72;5066257;28;20111;-68
2023/10/01 05:00:55;;;;;;;16.65;7.43;;;;;;;12.35;91.86;102269.00;5061777;28;20061;-68
2023/10/01 05:03:36;;;;;;;17.50;7.70;;;;;;;12.34;91.80;102270.00;5064799;28;20039;-67
2023/10/01 05:06:02;;;;;;;16.05;7.38;;;;;;;12.32;91.78;102263.97;5065667;28;20024;-67
2023/10/01 05:08:38;;;;;;;14.85;7.28;;;;;;;12.31;91.77;102259.63;5065844;28;20418;-68
2023/10/01 05:11:03;;;;;;;17.23;7.80;;;;;;;12.28;91.98;102268.78;5061377;28;20025;-68
2023/10/01 05:13:31;;;;;;;16.17;7.70;;;;;;;12.26;91.94;102264.56;5064644;28;20090;-67
2023/10/01 05:15:56;;;;;;;16.02;7.53;;;;;;;12.21;92.11;102269.50;5063725;28;20091;-67
2023/10/01 05:18:26;;;;;;;15.10;7.20;;;;;;;12.23;92.26;102272.84;5062786;28;20056;-68
2023/10/01 05:20:58;;;;;;;14.85;7.45;;;;;;;12.21;92.05;102278.34;5064832;28;20039;-68
2023/10/01 05:23:24;;;;;;;15.50;7.68;;;;;;;12.20;92.02;102278.47;5065879;28;20589;-68
2023/10/01 05:25:50;;;;;;;15.20;6.97;;;;;;;12.21;92.32;102280.16;5061012;28;20104;-68
2023/10/01 05:28:31;;;;;;;12.40;7.43;;;;;;;12.18;92.15;102283.13;5065304;28;20390;-68
2023/10/01 05:31:05;;;;;;;15.30;7.47;;;;;;;12.16;92.27;102279.75;5064710;28;20420;-69
2023/10/01 05:33:33;;;;;;;15.25;7.80;;;;;;;12.11;92.36;102285.50;5067000;28;20024;-67
2023/10/01 05:36:00;;;;;;;17.70;7.72;;;;;;;12.12;92.31;102294.31;5068845;28;20013;-67
2023/10/01 05:38:33;;;;;;;14.30;7.43;;;;;;;12.10;92.58;102287.31;5068714;28;20039;-68
2023/10/01 05:41:03;;;;;;;15.02;7.20;;;;;;;12.09;92.41;102292.78;5067511;28;20101;-67
2023/10/01 05:43:35;;;;;;;15.68;7.57;;;;;;;12.07;92.75;102284.94;5069518;28;20048;-67
2023/10/01 05:46:01;;;;;;;15.70;8.13;;;;;;;12.06;92.63;102293.09;5069111;28;20125;-67
2023/10/01 05:48:32;;;;;;;16.60;7.60;;;;;;;12.05;92.83;102286.91;5069951;28;20035;-67
2023/10/01 05:50:58;;;;;;;15.43;7.55;;;;;;;12.06;92.80;102277.94;5067442;28;20020;-67
2023/10/01 05:53:24;;;;;;;16.40;7.78;;;;;;;12.05;92.75;102278.94;5065963;28;20103;-67
2023/10/01 05:55:49;;;;;;;15.15;7.85;;;;;;;12.06;92.94;102291.25;5062165;28;20163;-68
2023/10/01 05:58:16;;;;;;;16.35;8.38;;;;;;;12.06;92.94;102279.78;5064857;28;20386;-68
2023/10/01 06:00:53;;;;;;;15.32;8.25;;;;;;;12.05;93.18;102278.09;5064871;28;20025;-67
2023/10/01 06:03:19;;;;;;;15.48;7.35;;;;;;;12.06;92.54;102283.28;5065753;28;20103;-68
2023/10/01 06:05:57;;;;;;;15.63;7.78;;;;;;;12.07;93.13;102276.97;5067787;28;20549;-67
2023/10/01 06:08:26;;;;;;;17.80;8.45;;;;;;;12.10;92.88;102282.00;5068773;28;20036;-68
2023/10/01 06:11:05;;;;;;;14.88;7.30;;;;;;;12.15;92.99;102291.41;5060953;28;20022;-68
2023/10/01 06:13:38;;;;;;;17.88;8.50;;;;;;;12.18;93.25;102293.78;5067497;28;20024;-67
2023/10/01 06:16:16;;;;;;;15.20;8.10;;;;;;;12.20;92.65;102297.13;5065463;28;20029;-68
2023/10/01 06:18:50;;;;;;;17.08;7.97;;;;;;;12.23;93.03;102292.34;5061070;28;20481;-68
2023/10/01 06:21:20;;;;;;;20.75;7.90;;;;;;;12.26;92.80;102291.22;5064615;28;20066;-67
2023/10/01 06:23:52;;;;;;;17.30;8.20;;;;;;;12.29;92.76;102290.91;5061235;28;20029;-67
2023/10/01 06:26:29;;;;;;;15.32;8.07;;;;;;;12.30;92.96;102293.44;5067549;28;20025;-67
2023/10/01 06:28:56;;;;;;;17.73;8.20;;;;;;;12.38;92.86;102295.34;5066418;28;20477;-68
2023/10/01 06:31:22;;;;;;;17.48;8.20;;;;;;;12.42;92.72;102294.06;5068534;28;20036;-68
2023/10/01 06:33:53;;;;;;;16.35;7.82;;;;;;;12.48;92.99;102292.66;5066827;28;20050;-68
2023/10/01 06:36:21;;;;;;;17.08;7.60;;;;;;;12.52;92.75;102276.22;5063316;28;20032;-68
2023/10/01 06:38:48;;;;;;;15.25;7.28;;;;;;;12.57;92.59;102276.63;5068326;28;20362;-68
2023/10/01 06:41:18;;;;;;;16.70;7.90;;;;;;;12.57;92.69;102278.44;5066534;28;20032;-68
2023/10/01 06:43:54;;;;;;;16.33;8.38;;;;;;;12.66;92.71;102283.72;5065455;28;20024;-68
2023/10/01 06:46:22;;;;;;;14.30;7.50;;;;;;;12.70;92.72;102287.75;5062210;28;20039;-68
2023/10/01 06:48:51;;;;;;;16.02;8.38;;;;;;;12.75;92.42;102275.84;5065429;28;20464;-68
2023/10/01 06:51:21;;;;;;;;;;;;;;;12.83;92.45;102289.25;5067274;28;20016;-68
2023/10/01 06:53:54;;;;;;;15.23;8.18;;;;;;;12.89;92.45;102285.97;5062103;28;19920;-68
2023/10/01 06:56:21;;;;;;;15.82;7.90;;;;;;;12.96;92.55;102279.03;5063373;28;20410;-68
2023/10/01 07:01:35;;;;;;;17.38;8.07;;;;;;;13.10;92.42;102270.53;5061402;28;20025;-68
2023/10/01 07:04:06;;;;;;;16.77;8.20;;;;;;;13.18;92.45;102273.31;5064337;28;20020;-68
2023/10/01 07:06:34;;;;;;;18.75;8.50;;;;;;;13.25;92.37;102273.53;5060126;28;20035;-68
2023/10/01 07:08:59;;;;;;;19.17;8.30;;;;;;;13.30;92.26;102276.59;5062487;28;20021;-68
2023/10/01 07:11:28;;;;;;;15.95;8.18;;;;;;;13.38;92.08;102275.81;5067089;28;20019;-68
2023/10/01 07:13:55;;;;;;;17.90;7.90;;;;;;;13.44;92.03;102281.38;5063000;28;20020;-68
2023/10/01 07:16:35;;;;;;;17.98;8.98;;;;;;;13.52;91.95;102285.94;5066130;28;20845;-68
2023/10/01 07:19:11;;;;;;;16.75;8.38;;;;;;;13.62;91.83;102294.72;5065398;28;20021;-68
2023/10/01 07:21:41;;;;;;;17.10;8.02;;;;;;;13.68;91.84;102286.06;5065970;28;20020;-68
2023/10/01 07:24:12;;;;;;;16.67;8.10;;;;;;;13.74;91.50;102290.78;5065176;28;20043;-68
2023/10/01 07:26:40;;;;;;;17.67;8.40;;;;;;;13.80;91.51;102290.16;5065072;28;20017;-68
2023/10/01 07:29:06;;;;;;;18.35;7.70;;;;;;;13.86;91.23;102286.03;5062625;28;20021;-69
2023/10/01 07:31:35;;;;;;;18.50;7.90;;;;;;;13.89;91.39;102275.88;5061533;28;20116;-68
2023/10/01 07:34:01;;;;;;;22.60;8.38;;;;;;;13.98;91.13;102279.44;5057853;28;20025;-68
2023/10/01 07:36:27;;;;;;;17.17;7.72;;;;;;;14.04;90.67;102285.97;5062982;28;20140;-68
2023/10/01 07:38:56;;;;;;;20.02;8.57;;;;;;;14.15;90.42;102285.69;5063577;28;20523;-68
2023/10/01 07:41:23;;;;;;;19.50;8.90;;;;;;;14.19;90.38;102284.41;5064358;28;20017;-68
2023/10/01 07:43:49;;;;;;;16.02;8.20;;;;;;;14.29;90.38;102292.31;5062372;28;20036;-68
2023/10/01 07:46:14;;;;;;;20.30;8.85;;;;;;;14.33;90.10;102299.84;5064717;28;20029;-67
2023/10/01 07:48:46;;;;;;;20.35;8.98;;;;;;;14.40;89.85;102300.88;5065090;28;20056;-68
2023/10/01 07:51:26;;;;;;;19.85;8.45;;;;;;;14.46;89.43;102302.94;5059153;28;20028;-67
2023/10/01 07:53:53;;;;;;;20.42;8.68;;;;;;;14.55;89.32;102301.16;5061459;28;20032;-67
2023/10/01 07:56:21;;;;;;;16.65;8.20;;;;;;;14.60;89.28;102293.47;5062218;28;20616;-67
2023/10/01 07:58:56;;;;;;;19.20;9.03;;;;;;;14.67;88.85;102307.03;5064045;28;20055;-68
2023/10/01 08:01:37;;;;;;;17.58;8.70;;;;;;;14.74;88.76;102305.38;5067348;28;20652;-68
2023/10/01 08:04:08;;;;;;;18.65;8.98;;;;;;;14.84;88.55;102300.75;5059635;28;20058;-68
2023/10/01 08:06:42;;;;;;;18.00;8.30;;;;;;;14.89;88.41;102309.13;5065616;28;20024;-68
2023/10/01 08:09:12;;;;;;;15.57;8.63;;;;;;;14.96;88.14;102303.94;5060424;28;20024;-68
2023/10/01 08:14:21;;;;;;;15.48;8.18;;;;;;;15.13;88.02;102308.34;5066648;28;20067;-69
2023/10/01 08:16:51;;;;;;;17.48;8.90;;;;;;;15.21;87.75;102308.34;5064111;28;20048;-68
2023/10/01 08:19:22;;;;;;;;;;;;;;;15.28;87.72;102311.19;5067807;28;20024;-68
2023/10/01 08:21:52;;;;;;;18.30;8.73;;;;;;;15.38;87.78;102315.41;5064742;28;19920;-68
2023/10/01 08:24:18;;;;;;;17.90;8.88;;;;;;;15.42;87.67;102315.91;5062095;28;20025;-68
2023/10/01 08:27:12;;;;;;;19.13;9.07;;;;;;;15.54;87.34;102325.28;5065516;28;20101;-68
2023/10/01 08:32:29;;;;;;;20.33;10.05;;;;;;;15.68;87.03;102315.78;5062107;28;20111;-68
2023/10/01 08:35:22;;;;;;;18.98;9.27;;;;;;;15.81;87.07;102326.81;5061744;28;20425;-68
2023/10/01 08:37:49;;;;;;;19.43;9.90;;;;;;;15.89;87.13;102325.94;5061571;28;20066;-68
2023/10/01 08:40:16;;;;;;;17.73;8.90;;;;;;;15.98;86.76;102324.97;5060321;28;20309;-68
2023/10/01 08:42:44;;;;;;;19.85;9.73;;;;;;;16.05;85.95;102325.94;5064191;28;20074;-68
2023/10/01 08:45:12;;;;;;;19.67;9.73;;;;;;;16.11;85.54;102327.94;5061068;28;20028;-68
2023/10/01 08:47:38;;;;;;;21.67;9.60;;;;;;;16.21;85.83;102317.88;5057979;28;20086;-68
2023/10/01 08:52:55;;;;;;;20.58;9.43;;;;;;;16.48;85.84;102318.44;5057639;28;20072;-68
2023/10/01 08:55:39;;;;;;;;;;;;;;;16.58;86.21;102314.56;5059494;28;20031;-68
2023/10/01 08:58:14;;;;;;;19.00;9.25;;;;;;;16.69;85.64;102316.06;5061170;28;19917;-68
2023/10/01 09:00:48;;;;;;;18.42;9.60;;;;;;;16.75;84.91;102311.81;5061907;28;20028;-68
2023/10/01 09:03:26;;;;;;;24.30;10.10;;;;;;;16.86;84.25;102323.03;5062548;28;20541;-68
2023/10/01 09:06:04;;;;;;;20.63;10.32;;;;;;;16.94;83.95;102311.41;5060269;28;20599;-68
2023/10/01 09:08:42;;;;;;;20.45;9.35;;;;;;;17.01;84.10;102301.63;5063406;28;20021;-68
2023/10/01 09:11:12;;;;;;;23.07;10.03;;;;;;;17.26;83.68;102308.50;5070762;28;20082;-68
2023/10/01 09:13:57;;;;;;;18.15;9.27;;;;;;;17.41;83.33;102315.81;5062547;28;20370;-68
2023/10/01 09:16:32;;;;;;;20.10;10.07;;;;;;;17.43;82.99;102303.03;5066439;28;20025;-68
2023/10/01 09:19:29;;;;;;;20.52;9.88;;;;;;;17.54;82.70;102311.47;5060531;28;20457;-68
2023/10/01 09:21:51;;;;;;;19.30;9.73;;;;;;;17.61;81.76;102309.75;5063946;28;20404;-68
2023/10/01 09:24:34;;;;;;;20.25;10.10;;;;;;;17.72;81.56;102305.00;5067755;28;20028;-68
2023/10/01 09:27:18;;;;;;;22.02;9.82;;;;;;;17.74;81.50;102301.13;5066681;28;20086;-68
2023/10/01 09:29:48;;;;;;;24.95;9.95;;;;;;;17.68;81.55;102292.94;5068306;28;20032;-68
2023/10/01 09:32:14;;;;;;;19.70;10.05;;;;;;;17.69;81.86;102273.13;5067991;28;20067;-68
2023/10/01 09:34:53;;;;;;;20.27;9.88;;;;;;;17.87;82.30;102289.72;5069741;28;20040;-68
2023/10/01 09:37:34;;;;;;;20.02;10.55;;;;;;;17.99;82.35;102288.28;5058188;28;20374;-68
2023/10/01 09:42:56;;;;;;;20.95;9.82;;;;;;;18.33;81.27;102286.88;5066173;28;20082;-68
2023/10/01 09:45:26;;;;;;;22.48;10.20;;;;;;;18.48;81.06;102288.53;5068049;28;20021;-68
2023/10/01 09:48:09;;;;;;;22.42;10.60;;;;;;;18.56;80.33;102291.13;5061969;28;20036;-68
2023/10/01 09:50:41;;;;;;;22.15;10.75;;;;;;;18.61;79.63;102293.25;5068347;28;20016;-68
2023/10/01 09:53:12;;;;;;;20.42;10.10;;;;;;;18.69;78.84;102303.94;5063303;28;20021;-68
2023/10/01 09:55:47;;;;;;;24.52;10.75;;;;;;;18.79;79.32;102300.94;5063122;28;20028;-68
2023/10/01 09:58:20;;;;;;;21.13;10.30;;;;;;;18.90;78.88;102310.41;5071153;28;20066;-68
2023/10/01 10:00:48;;;;;;;20.77;10.65;;;;;;;18.97;78.50;102305.91;5065620;28;20025;-68
2023/10/01 10:03:14;;;;;;;20.33;9.93;;;;;;;19.04;78.00;102306.81;5066612;28;20032;-69
2023/10/01 10:05:40;;;;;;;18.83;9.52;;;;;;;19.10;78.13;102298.84;5066087;28;20028;-68
2023/10/01 10:08:26;;;;;;;21.23;10.45;;;;;;;19.13;77.82;102297.63;5067753;28;20039;-68
2023/10/01 10:10:55;;;;;;;22.30;10.20;;;;;;;19.13;77.44;102297.63;5063308;28;20548;-68
2023/10/01 10:13:45;;;;;;;21.80;10.55;;;;;;;19.23;76.94;102291.91;5066196;28;20024;-68
2023/10/01 10:16:30;;;;;;;20.10;9.57;;;;;;;19.31;76.54;102291.75;5061848;28;20070;-68
2023/10/01 10:19:22;;;;;;;20.35;9.70;;;;;;;19.32;76.43;102291.56;5061377;28;20045;-68
2023/10/01 10:24:31;;;;;;;17.25;9.00;;;;;;;19.48;76.69;102296.72;5060704;28;20056;-68
2023/10/01 10:27:00;;;;;;;17.77;8.85;;;;;;;19.57;76.65;102286.66;5061386;28;20033;-68
2023/10/01 10:29:46;;;;;;;19.00;8.82;;;;;;;19.68;75.85;102285.31;5063187;28;20051;-68
2023/10/01 10:32:15;;;;;;;19.00;8.57;;;;;;;19.75;75.52;102291.56;5066881;28;20040;-67
2023/10/01 10:35:06;;;;;;;20.23;8.70;;;;;;;19.84;75.28;102290.38;5067221;28;20097;-68
2023/10/01 10:37:55;;;;;;;17.55;8.40;;;;;;;19.93;75.07;102275.72;5062803;28;20038;-68
2023/10/01 10:40:22;;;;;;;17.92;8.23;;;;;;;20.01;74.88;102285.53;5060655;28;20058;-68
2023/10/01 10:43:00;;;;;;;19.00;8.27;;;;;;;20.10;74.31;102281.63;5063744;28;20028;-68
2023/10/01 10:45:31;;;;;;;16.52;8.18;;;;;;;20.16;74.42;102282.72;5064927;28;20020;-67
2023/10/01 10:48:02;;;;;;;15.55;8.38;;;;;;;20.20;74.05;102286.66;5059008;28;20069;-68
2023/10/01 10:50:53;;;;;;;17.58;8.07;;;;;;;20.24;73.21;102288.78;5064380;28;20128;-68
2023/10/01 10:53:19;;;;;;;19.65;9.48;;;;;;;20.37;74.27;102283.44;5057345;28;20024;-68
2023/10/01 10:55:53;;;;;;;21.00;8.57;;;;;;;20.48;73.99;102276.66;5061759;28;20028;-68
2023/10/01 10:58:19;;;;;;;19.63;9.43;;;;;;;20.67;73.72;102272.41;5056864;28;20028;-68
2023/10/01 11:00:47;;;;;;;16.38;8.35;;;;;;;20.64;72.66;102275.50;5064777;28;20047;-68
2023/10/01 11:03:12;;;;;;;18.25;8.35;;;;;;;20.65;72.85;102269.91;5068237;28;20043;-68
2023/10/01 11:05:49;;;;;;;23.15;8.57;;;;;;;20.66;72.05;102270.72;5066298;28;20028;-68
2023/10/01 11:08:25;;;;;;;16.20;8.00;;;;;;;20.67;71.57;102261.59;5069136;28;20056;-68
2023/10/01 11:10:54;;;;;;;16.73;7.75;;;;;;;20.70;71.60;102262.03;5065645;28;20482;-68
2023/10/01 11:13:36;;;;;;;20.73;8.55;;;;;;;20.80;71.79;102264.31;5065091;28;20028;-68
2023/10/01 11:16:13;;;;;;;16.17;7.95;;;;;;;20.90;71.69;102259.38;5066472;28;20116;-68
2023/10/01 11:18:41;;;;;;;14.60;7.65;;;;;;;20.95;71.49;102251.50;5061357;28;20024;-68
2023/10/01 11:21:10;;;;;;;16.75;8.23;;;;;;;20.95;70.76;102247.97;5064002;28;20035;-68
2023/10/01 11:23:37;;;;;;;17.63;8.02;;;;;;;20.96;71.12;102249.63;5063099;28;20852;-68
2023/10/01 11:26:06;;;;;;;19.95;8.27;;;;;;;21.03;70.79;102247.75;5065796;28;20017;-67
2023/10/01 11:28:41;;;;;;;17.92;7.97;;;;;;;21.17;70.88;102254.88;5063274;28;20024;-68
2023/10/01 11:31:31;;;;;;;17.08;7.90;;;;;;;21.23;70.37;102256.75;5062786;28;20024;-68
2023/10/01 11:34:21;;;;;;;14.85;7.70;;;;;;;21.27;70.27;102241.81;5065809;28;20055;-68
2023/10/01 11:36:56;;;;;;;22.90;8.48;;;;;;;21.40;70.44;102240.16;5065246;28;20039;-67
2023/10/01 11:39:38;;;;;;;17.92;8.32;;;;;;;21.48;69.80;102234.53;5062797;28;20148;-67
2023/10/01 11:42:19;;;;;;;17.75;7.68;;;;;;;21.53;69.49;102232.03;5063045;28;20103;-68
2023/10/01 11:44:44;;;;;;;17.48;7.80;;;;;;;21.56;68.86;102237.00;5058517;28;20025;-68
2023/10/01 11:47:30;;;;;;;16.20;7.60;;;;;;;21.56;69.27;102234.31;5066052;28;20619;-67
2023/10/01 11:50:07;;;;;;;16.55;7.78;;;;;;;21.63;69.26;102232.44;5063764;28;20037;-68
2023/10/01 11:52:32;;;;;;;15.75;7.80;;;;;;;21.70;69.05;102225.16;5064317;28;20113;-68
2023/10/01 11:54:57;;;;;;;17.63;7.65;;;;;;;21.73;67.72;102227.44;5059600;28;20100;-68
2023/10/01 11:57:23;;;;;;;17.80;7.70;;;;;;;21.80;68.06;102227.41;5065290;28;20074;-68
2023/10/01 11:59:57;;;;;;;16.88;7.47;;;;;;;21.82;66.92;102223.47;5066434;28;20123;-68
2023/10/01 12:02:29;;;;;;;16.45;7.63;;;;;;;21.81;67.05;102215.56;5063630;28;20032;-68
2023/10/01 12:04:58;;;;;;;15.65;7.70;;;;;;;21.84;67.23;102207.84;5058090;28;20130;-68